Time;durP1;ratioP1;P1;durP2;ratioP2;P2;SDS_P1;SDS_P2;PMS_P1;PMS_P2;Temp;Humidity;BMP_temperature;BMP_pressure;BME280_temperature;BME280_humidity;BME280_pressure;Samples;Min_cycle;Max_cycle;Signal;HPM_P1;HPM_P2
2022/04/22 00:00:37;;;;;;;1.13;0.70;;;10.90;29.80;;;;;;5120254;28;20445;-58
2022/04/22 00:03:06;;;;;;;2.17;0.77;;;10.90;42.00;;;;;;5117895;28;20440;-58
2022/04/22 00:05:33;;;;;;;1.00;0.70;;;10.90;62.70;;;;;;5117678;28;20563;-59
2022/04/22 00:08:00;;;;;;;1.30;0.90;;;10.90;21.90;;;;;;5117612;28;20505;-59
2022/04/22 00:10:27;;;;;;;1.47;0.70;;;11.00;56.40;;;;;;5117392;28;20805;-58
2022/04/22 00:12:55;;;;;;;1.00;0.80;;;11.00;10.10;;;;;;5117921;28;20484;-59
2022/04/22 00:15:24;;;;;;;1.00;0.80;;;11.00;7.90;;;;;;5117481;28;20484;-59
2022/04/22 00:17:50;;;;;;;1.93;0.70;;;10.90;68.70;;;;;;5119305;28;20480;-59
2022/04/22 00:20:17;;;;;;;1.00;0.70;;;11.00;61.40;;;;;;5119085;28;20512;-58
2022/04/22 00:22:45;;;;;;;2.33;0.90;;;11.00;38.50;;;;;;5117718;28;20441;-58
2022/04/22 00:25:14;;;;;;;0.97;0.70;;;11.00;17.40;;;;;;5116487;28;20451;-59
2022/04/22 00:27:41;;;;;;;1.00;0.60;;;11.00;1.00;;;;;;5117752;28;20802;-59
2022/04/22 00:30:10;;;;;;;1.50;0.90;;;11.00;27.70;;;;;;5117617;28;20448;-59
2022/04/22 00:32:39;;;;;;;0.93;0.77;;;11.00;6.70;;;;;;5118473;28;20913;-57
2022/04/22 00:35:07;;;;;;;1.30;0.90;;;10.90;10.10;;;;;;5116443;28;20505;-59
2022/04/22 00:37:34;;;;;;;1.20;0.80;;;10.70;99.90;;;;;;5119375;28;20513;-58
2022/04/22 00:40:01;;;;;;;1.67;0.97;;;10.70;99.90;;;;;;5119487;28;20449;-58
2022/04/22 00:42:28;;;;;;;2.87;0.93;;;10.60;99.90;;;;;;5119306;28;20445;-59
2022/04/22 00:44:57;;;;;;;1.10;0.80;;;10.50;99.90;;;;;;5119199;28;20444;-58
2022/04/22 00:47:24;;;;;;;2.53;1.20;;;10.40;99.90;;;;;;5117028;28;20450;-59
2022/04/22 00:49:53;;;;;;;1.60;0.90;;;10.40;99.90;;;;;;5117987;28;20448;-56
2022/04/22 00:52:20;;;;;;;1.13;0.77;;;10.40;1.00;;;;;;5119017;28;20452;-58
2022/04/22 00:54:48;;;;;;;1.10;0.83;;;10.20;1.00;;;;;;5118970;28;20441;-58
2022/04/22 00:57:18;;;;;;;3.00;0.90;;;10.10;1.00;;;;;;5118779;28;20480;-59
2022/04/22 00:59:45;;;;;;;1.30;0.70;;;10.20;1.00;;;;;;5118594;28;20515;-59
2022/04/22 01:02:12;;;;;;;1.40;0.80;;;10.30;1.00;;;;;;5118151;28;20929;-56
2022/04/22 01:10:10;;;;;;;1.33;0.97;;;10.30;1.00;;;;;;5117329;28;20428;-56
2022/04/22 01:12:38;;;;;;;4.33;0.93;;;10.30;1.00;;;;;;5117961;28;20448;-57
2022/04/22 01:15:06;;;;;;;1.87;0.93;;;10.20;1.00;;;;;;5118401;28;20436;-57
2022/04/22 01:17:33;;;;;;;1.17;0.90;;;10.20;1.00;;;;;;5118636;28;20746;-57
2022/04/22 01:20:00;;;;;;;1.33;1.00;;;10.20;1.00;;;;;;5118545;28;20757;-58
2022/04/22 01:22:28;;;;;;;1.83;1.07;;;10.20;1.00;;;;;;5118532;28;20445;-58
2022/04/22 01:24:57;;;;;;;1.87;0.90;;;10.20;1.00;;;;;;5118051;28;20449;-57
2022/04/22 01:27:27;;;;;;;2.77;1.13;;;10.20;1.00;;;;;;5118540;28;20445;-57
2022/04/22 01:29:54;;;;;;;1.50;0.80;;;10.20;1.00;;;;;;5118097;28;20445;-57
2022/04/22 01:32:21;;;;;;;2.03;1.00;;;10.10;1.00;;;;;;5118324;28;20920;-57
2022/04/22 01:34:48;;;;;;;1.80;1.00;;;10.00;99.90;;;;;;5118161;28;20480;-57
2022/04/22 01:37:15;;;;;;;1.30;0.80;;;10.00;99.90;;;;;;5118245;28;20456;-57
2022/04/22 01:39:43;;;;;;;2.93;1.10;;;10.00;99.90;;;;;;5116587;28;20513;-56
2022/04/22 01:42:10;;;;;;;1.20;0.90;;;9.90;99.90;;;;;;5116235;28;20510;-57
2022/04/22 01:44:37;;;;;;;3.23;1.10;;;9.90;99.90;;;;;;5116497;28;20941;-57
2022/04/22 01:47:05;;;;;;;1.73;0.90;;;9.90;99.90;;;;;;5115245;28;20460;-57
2022/04/22 01:49:32;;;;;;;2.07;1.30;;;9.90;1.00;;;;;;5115819;28;20440;-57
2022/04/22 01:52:00;;;;;;;5.20;1.40;;;9.90;1.00;;;;;;5115556;28;20471;-58
2022/04/22 01:54:27;;;;;;;1.93;1.00;;;9.80;1.00;;;;;;5116599;28;20517;-57
2022/04/22 01:56:55;;;;;;;3.30;1.33;;;9.90;1.00;;;;;;5117096;28;20460;-57
2022/04/22 01:59:22;;;;;;;2.07;0.93;;;9.90;1.00;;;;;;5114809;28;20942;-57
2022/04/22 02:01:49;;;;;;;1.90;0.90;;;9.90;99.90;;;;;;5115428;28;20536;-57
2022/04/22 02:04:16;;;;;;;3.53;1.20;;;10.00;99.90;;;;;;5115448;28;20449;-58
2022/04/22 02:10:06;;;;;;;2.17;1.20;;;9.80;1.00;;;;;;5116855;27;20400;-56
2022/04/22 02:12:35;;;;;;;2.90;1.10;;;9.60;99.90;;;;;;5135999;27;20950;-57
2022/04/22 02:15:02;;;;;;;1.60;1.00;;;9.70;99.90;;;;;;5136774;27;20877;-57
2022/04/22 02:17:31;;;;;;;2.93;1.53;;;9.80;28.20;;;;;;5137000;27;20471;-58
2022/04/22 02:19:58;;;;;;;2.50;1.50;;;9.90;1.00;;;;;;5135414;27;20535;-58
2022/04/22 02:22:25;;;;;;;1.80;1.13;;;9.90;1.00;;;;;;5136389;27;20446;-57
2022/04/22 02:24:52;;;;;;;2.40;1.20;;;9.80;1.00;;;;;;5134375;27;20444;-57
2022/04/22 02:30:06;;;;;;;2.80;1.30;;;9.70;99.90;;;;;;5133906;27;20870;-58
2022/04/22 02:32:33;;;;;;;2.17;1.10;;;9.70;91.50;;;;;;5133167;27;20451;-57
2022/04/22 02:34:59;;;;;;;2.80;1.20;;;9.60;99.90;;;;;;5133780;27;20480;-57
2022/04/22 02:37:26;;;;;;;1.80;1.17;;;9.60;1.00;;;;;;5133628;27;20902;-55
2022/04/22 02:39:53;;;;;;;1.93;1.10;;;9.50;1.00;;;;;;5134784;27;20443;-56
2022/04/22 02:45:27;;;;;;;2.60;1.20;;;9.50;1.00;;;;;;5133528;27;20715;-56
2022/04/22 02:47:55;;;;;;;2.60;1.10;;;9.50;1.00;;;;;;5135654;27;20550;-58
2022/04/22 02:50:23;;;;;;;5.47;1.50;;;9.40;1.00;;;;;;5134469;27;20882;-57
2022/04/22 02:52:51;;;;;;;2.60;1.60;;;9.40;1.00;;;;;;5136770;27;20451;-59
2022/04/22 02:55:18;;;;;;;2.40;1.40;;;9.50;1.00;;;;;;5137643;27;20899;-57
2022/04/22 02:57:45;;;;;;;2.50;1.30;;;9.60;99.90;;;;;;5137103;27;20496;-58
2022/04/22 03:00:15;;;;;;;3.10;1.50;;;9.60;99.90;;;;;;5136771;27;20463;-57
2022/04/22 03:02:43;;;;;;;4.37;1.20;;;9.70;1.00;;;;;;5136343;27;20501;-57
2022/04/22 03:05:11;;;;;;;2.67;1.63;;;9.60;99.90;;;;;;5137342;27;20820;-57
2022/04/22 03:07:38;;;;;;;4.00;1.47;;;9.70;99.90;;;;;;5135132;27;20761;-58
2022/04/22 03:10:07;;;;;;;2.93;1.70;;;9.70;1.00;;;;;;5135895;27;20505;-57
2022/04/22 03:12:34;;;;;;;4.07;2.20;;;9.60;1.00;;;;;;5135296;27;20982;-57
2022/04/22 03:15:01;;;;;;;3.60;2.33;;;9.50;1.00;;;;;;5136737;27;20486;-57
2022/04/22 03:17:30;;;;;;;4.60;2.37;;;9.50;99.90;;;;;;5137101;28;20455;-57
2022/04/22 03:19:57;;;;;;;3.77;1.73;;;9.30;99.90;;;;;;5136777;28;20451;-57
2022/04/22 03:22:26;;;;;;;5.23;2.73;;;9.20;1.00;;;;;;5135657;28;20954;-57
2022/04/22 03:24:53;;;;;;;4.63;2.17;;;9.30;1.00;;;;;;5134964;28;20448;-56
2022/04/22 03:27:20;;;;;;;4.57;1.73;;;9.30;1.00;;;;;;5132826;28;20489;-57
2022/04/22 03:29:47;;;;;;;4.80;2.20;;;9.30;1.00;;;;;;5137485;27;20466;-56
2022/04/22 03:32:15;;;;;;;3.43;1.90;;;9.20;1.00;;;;;;5139736;27;20452;-56
2022/04/22 03:34:44;;;;;;;5.33;2.30;;;9.10;1.00;;;;;;5140498;27;20483;-57
2022/04/22 03:37:11;;;;;;;3.73;2.10;;;9.20;1.00;;;;;;5141266;27;20470;-57
2022/04/22 03:39:38;;;;;;;8.10;2.30;;;9.20;99.90;;;;;;5141259;27;20509;-57
2022/04/22 03:42:06;;;;;;;3.73;2.17;;;9.20;99.90;;;;;;5139621;27;20848;-55
2022/04/22 03:44:33;;;;;;;3.50;2.53;;;9.10;1.00;;;;;;5138848;27;20447;-57
2022/04/22 03:47:03;;;;;;;4.60;2.30;;;8.90;99.90;;;;;;5139298;27;20443;-57
2022/04/22 03:49:30;;;;;;;3.63;1.93;;;8.80;99.90;;;;;;5138139;27;20760;-57
2022/04/22 03:51:59;;;;;;;4.67;1.77;;;8.80;1.00;;;;;;5140047;27;20751;-56
2022/04/22 03:54:26;;;;;;;4.07;2.53;;;8.70;1.00;;;;;;5139246;27;20486;-57
2022/04/22 03:59:37;;;;;;;6.13;2.43;;;8.80;1.00;;;;;;5137189;27;20442;-58
2022/04/22 04:02:05;;;;;;;3.63;2.80;;;8.90;99.90;;;;;;5138800;27;20875;-57
2022/04/22 04:04:32;;;;;;;4.87;2.30;;;8.80;99.90;;;;;;5139097;27;20451;-57
2022/04/22 04:07:00;;;;;;;5.60;2.40;;;8.80;99.90;;;;;;5139021;27;20483;-57
2022/04/22 04:17:41;;;;;;;4.30;2.33;;;8.80;1.00;;;;;;5137590;27;20515;-57
2022/04/22 04:23:15;;;;;;;6.00;2.60;;;8.70;1.00;;;;;;5073051;28;20479;-58
2022/04/22 04:25:43;;;;;;;5.33;3.00;;;8.70;1.00;;;;;;5074950;28;20433;-57
2022/04/22 04:28:10;;;;;;;9.37;4.23;;;8.80;1.00;;;;;;5104930;27;21122;-56
2022/04/22 04:30:38;;;;;;;7.23;3.83;;;8.80;99.90;;;;;;5137372;27;20859;-57
2022/04/22 04:33:06;;;;;;;5.50;2.80;;;8.70;1.00;;;;;;5137313;27;20596;-58
2022/04/22 04:35:34;;;;;;;6.47;3.27;;;8.60;1.00;;;;;;5138285;27;20502;-57
2022/04/22 04:38:01;;;;;;;7.47;4.07;;;8.60;1.00;;;;;;5137278;27;20498;-57
2022/04/22 04:40:30;;;;;;;8.20;4.30;;;8.60;1.00;;;;;;5138693;27;20444;-57
2022/04/22 04:42:57;;;;;;;6.80;3.80;;;8.50;1.00;;;;;;5136452;27;20451;-57
2022/04/22 04:45:24;;;;;;;4.33;2.77;;;8.50;1.00;;;;;;5137573;27;20444;-57
2022/04/22 04:47:51;;;;;;;13.77;3.90;;;8.60;1.00;;;;;;5138249;27;20448;-57
2022/04/22 04:50:18;;;;;;;4.70;2.97;;;8.70;1.00;;;;;;5138583;27;20501;-57
2022/04/22 04:52:45;;;;;;;5.27;2.47;;;8.70;1.00;;;;;;5121057;27;20481;-57
2022/04/22 04:55:14;;;;;;;4.30;2.60;;;8.60;1.00;;;;;;5138200;27;20475;-57
2022/04/22 04:57:43;;;;;;;6.43;2.93;;;8.50;1.00;;;;;;5137867;27;20447;-57
2022/04/22 05:00:12;;;;;;;6.53;4.03;;;8.40;1.00;;;;;;5137752;27;20498;-55
2022/04/22 05:02:40;;;;;;;5.40;3.33;;;8.30;1.00;;;;;;5138213;27;20452;-57
2022/04/22 05:05:09;;;;;;;7.13;4.67;;;8.30;1.00;;;;;;5137194;27;20455;-57
2022/04/22 05:07:48;;;;;;;7.83;4.00;;;8.40;1.00;;;;;;5138715;27;20443;-57
2022/04/22 05:10:16;;;;;;;8.00;4.73;;;8.50;1.00;;;;;;5137924;27;20480;-57
2022/04/22 05:12:44;;;;;;;6.37;3.60;;;8.70;1.00;;;;;;5137930;27;20444;-57
2022/04/22 05:15:12;;;;;;;6.17;3.53;;;8.60;1.00;;;;;;5136358;27;20491;-59
2022/04/22 05:17:41;;;;;;;8.00;3.00;;;8.70;1.00;;;;;;5139102;27;20459;-59
2022/04/22 05:20:09;;;;;;;5.67;2.83;;;8.60;1.00;;;;;;5137563;27;20479;-59
2022/04/22 05:22:36;;;;;;;6.50;3.27;;;8.70;1.00;;;;;;5136935;27;20660;-57
2022/04/22 05:25:05;;;;;;;6.43;3.50;;;9.00;1.00;;;;;;5136960;27;20455;-57
2022/04/22 05:27:32;;;;;;;7.10;4.23;;;9.10;99.90;;;;;;5136968;27;20536;-58
2022/04/22 05:32:48;;;;;;;9.03;3.47;;;8.70;1.00;;;;;;5135922;27;20423;-58
2022/04/22 05:35:16;;;;;;;10.47;4.50;;;8.50;1.00;;;;;;5135827;27;20578;-58
2022/04/22 05:37:45;;;;;;;8.17;3.83;;;8.60;1.00;;;;;;5137193;27;20451;-58
2022/04/22 05:40:13;;;;;;;7.30;4.47;;;8.80;1.00;;;;;;5136898;27;20458;-58
2022/04/22 05:42:41;;;;;;;8.00;3.77;;;8.90;1.00;;;;;;5136747;27;20431;-58
2022/04/22 05:45:11;;;;;;;7.23;4.77;;;8.90;1.00;;;;;;5135289;27;20479;-58
2022/04/22 05:47:38;;;;;;;6.50;3.80;;;8.80;1.00;;;;;;5133414;27;20717;-58
2022/04/22 05:50:10;;;;;;;8.27;4.17;;;8.70;1.00;;;;;;5133189;27;20444;-57
2022/04/22 05:52:38;;;;;;;11.73;4.97;;;8.70;1.00;;;;;;5132796;27;20454;-58
2022/04/22 05:55:08;;;;;;;6.17;4.17;;;8.60;1.00;;;;;;5134872;27;20570;-57
2022/04/22 05:57:36;;;;;;;9.47;5.03;;;8.60;1.00;;;;;;5135789;27;20503;-55
2022/04/22 06:00:07;;;;;;;11.33;6.70;;;8.60;1.00;;;;;;5117379;27;20479;-55
2022/04/22 06:02:35;;;;;;;7.40;5.40;;;8.70;1.00;;;;;;5114814;28;20535;-57
2022/04/22 06:05:02;;;;;;;9.80;5.90;;;8.80;1.00;;;;;;5115102;28;20448;-52
2022/04/22 06:07:32;;;;;;;10.03;5.33;;;8.90;1.00;;;;;;5114589;28;20471;-57
2022/04/22 06:12:44;;;;;;;9.20;6.33;;;9.10;1.00;;;;;;5114720;28;20424;-55
2022/04/22 06:15:11;;;;;;;6.90;3.40;;;9.30;99.90;;;;;;5116143;28;20477;-55
2022/04/22 06:17:39;;;;;;;9.30;5.33;;;9.40;99.90;;;;;;5114310;28;20448;-55
2022/04/22 06:20:07;;;;;;;7.77;5.27;;;9.40;99.90;;;;;;5114358;28;20734;-55
2022/04/22 06:22:34;;;;;;;10.10;5.33;;;9.50;99.90;;;;;;5113071;28;20749;-55
2022/04/22 06:25:02;;;;;;;8.20;4.93;;;9.50;1.00;;;;;;5112804;28;20448;-57
2022/04/22 06:27:34;;;;;;;7.73;5.10;;;9.50;99.90;;;;;;5114061;28;20448;-55
2022/04/22 06:30:06;;;;;;;7.97;4.53;;;9.60;7.30;;;;;;5113494;28;20452;-55
2022/04/22 06:32:33;;;;;;;8.67;4.80;;;9.70;1.00;;;;;;5115082;27;20471;-57
2022/04/22 06:35:06;;;;;;;8.00;5.13;;;9.80;1.00;;;;;;5124540;27;20570;-57
2022/04/22 06:37:36;;;;;;;6.70;4.87;;;10.00;99.90;;;;;;5134526;27;20558;-55
2022/04/22 06:45:48;;;;;;;10.67;6.10;;;9.80;99.90;;;;;;5091731;28;20505;-56
2022/04/22 06:48:17;;;;;;;11.77;5.97;;;9.90;59.90;;;;;;5119540;27;20488;-56
2022/04/22 06:50:48;;;;;;;10.57;4.60;;;9.80;99.90;;;;;;5120400;27;20925;-55
2022/04/22 06:53:16;;;;;;;7.37;4.43;;;9.90;99.90;;;;;;5133472;27;20439;-54
2022/04/22 06:55:44;;;;;;;10.20;5.80;;;9.80;99.90;;;;;;5131911;27;20827;-56
2022/04/22 06:58:13;;;;;;;11.40;6.40;;;9.80;99.90;;;;;;5133927;27;20878;-56
2022/04/22 07:00:41;;;;;;;11.67;6.57;;;9.80;1.00;;;;;;5131813;27;20459;-54
2022/04/22 07:03:17;;;;;;;6.23;4.03;;;10.00;99.90;;;;;;5133213;27;20906;-55
2022/04/22 07:05:51;;;;;;;11.20;6.33;;;10.20;1.00;;;;;;5132342;27;20447;-54
2022/04/22 07:08:20;;;;;;;8.73;6.87;;;10.30;99.90;;;;;;5132654;27;20880;-54
2022/04/22 07:10:52;;;;;;;8.17;4.23;;;10.50;99.90;;;;;;5126159;27;20753;-54
2022/04/22 07:13:20;;;;;;;9.73;6.57;;;10.50;99.90;;;;;;5114320;28;20452;-55
2022/04/22 07:15:50;;;;;;;10.20;6.50;;;10.60;71.20;;;;;;5111589;28;20491;-58
2022/04/22 07:18:17;;;;;;;11.20;7.57;;;10.50;7.40;;;;;;5114624;28;20460;-56
2022/04/22 07:20:45;;;;;;;11.60;6.20;;;10.50;1.00;;;;;;5115267;28;20535;-55
2022/04/22 07:23:16;;;;;;;8.90;6.03;;;10.30;99.90;;;;;;5119457;28;20440;-52
2022/04/22 07:25:46;;;;;;;11.13;5.97;;;10.20;1.00;;;;;;5131643;28;21072;-56
2022/04/22 07:28:15;;;;;;;10.57;5.90;;;10.20;99.90;;;;;;5133261;28;20455;-55
2022/04/22 07:30:46;;;;;;;10.17;5.47;;;10.10;1.00;;;;;;5131645;28;20455;-56
2022/04/22 07:33:13;;;;;;;6.00;5.03;;;10.40;99.90;;;;;;5132821;28;20448;-54
2022/04/22 07:35:41;;;;;;;9.67;5.40;;;10.40;1.00;;;;;;5131840;28;20519;-55
2022/04/22 07:38:11;;;;;;;11.20;6.67;;;10.60;99.90;;;;;;5133509;28;20459;-54
2022/04/22 07:40:43;;;;;;;9.90;6.50;;;10.80;99.90;;;;;;5122621;28;20447;-53
2022/04/22 07:48:45;;;;;;;11.40;7.07;;;11.00;1.00;;;;;;5113791;28;20473;-52
2022/04/22 07:51:12;;;;;;;9.80;6.50;;;11.10;99.90;;;;;;5114804;28;20452;-55
2022/04/22 07:53:40;;;;;;;9.43;6.90;;;11.00;99.90;;;;;;5119862;28;20883;-56
2022/04/22 07:56:08;;;;;;;15.07;5.90;;;11.00;99.90;;;;;;5128073;28;20507;-54
2022/04/22 07:58:43;;;;;;;11.60;6.40;;;11.10;99.90;;;;;;5130027;28;20872;-55
2022/04/22 08:01:10;;;;;;;8.37;6.30;;;11.20;99.90;;;;;;5130405;28;20886;-55
2022/04/22 08:03:40;;;;;;;9.57;5.40;;;11.30;99.90;;;;;;5130433;28;20444;-53
2022/04/22 08:06:07;;;;;;;12.67;7.33;;;11.40;99.90;;;;;;5120152;28;20436;-52
2022/04/22 08:08:35;;;;;;;10.33;6.37;;;11.50;99.90;;;;;;5110619;28;20456;-50
2022/04/22 08:11:06;;;;;;;10.90;6.50;;;11.50;1.00;;;;;;5110944;28;20508;-55
2022/04/22 08:13:35;;;;;;;9.33;7.03;;;11.70;1.00;;;;;;5120724;28;20508;-51
2022/04/22 08:16:03;;;;;;;11.10;6.77;;;11.80;1.00;;;;;;5123712;27;20843;-53
2022/04/22 08:18:30;;;;;;;14.30;7.27;;;11.70;1.00;;;;;;5134923;27;20447;-51
2022/04/22 08:20:57;;;;;;;10.70;6.67;;;11.70;1.00;;;;;;5136822;27;20504;-50
2022/04/22 08:23:24;;;;;;;8.67;6.50;;;11.80;1.00;;;;;;5133271;27;20879;-49
2022/04/22 08:25:51;;;;;;;9.83;6.27;;;11.90;1.00;;;;;;5138390;27;20442;-50
2022/04/22 08:28:18;;;;;;;11.70;8.03;;;12.10;1.00;;;;;;5130253;27;20516;-52
2022/04/22 08:30:47;;;;;;;10.30;5.63;;;12.20;99.90;;;;;;5133989;27;20439;-49
2022/04/22 08:33:14;;;;;;;9.17;5.90;;;12.20;99.90;;;;;;5137739;27;20466;-52
2022/04/22 08:35:41;;;;;;;9.33;5.43;;;12.40;99.90;;;;;;5137405;27;20479;-51
2022/04/22 08:38:08;;;;;;;8.57;6.60;;;12.50;99.90;;;;;;5119710;27;20460;-52
2022/04/22 08:40:37;;;;;;;11.10;6.50;;;12.60;99.90;;;;;;5132543;27;20768;-56
2022/04/22 08:43:05;;;;;;;9.33;6.70;;;12.60;99.90;;;;;;5130875;27;20523;-56
2022/04/22 08:45:35;;;;;;;9.60;5.70;;;12.60;99.90;;;;;;5123670;27;20452;-57
2022/04/22 08:50:54;;;;;;;7.77;5.33;;;12.70;99.90;;;;;;5116494;27;20436;-57
2022/04/22 08:53:25;;;;;;;7.17;4.43;;;12.80;98.80;;;;;;5116282;27;20893;-57
2022/04/22 08:55:57;;;;;;;9.50;5.20;;;13.00;63.10;;;;;;5113833;28;20484;-55
2022/04/22 08:58:26;;;;;;;8.30;6.20;;;13.10;26.20;;;;;;5114065;28;20441;-56
2022/04/22 09:00:57;;;;;;;8.57;5.27;;;13.20;1.00;;;;;;5124254;27;20712;-56
2022/04/22 09:03:28;;;;;;;8.37;5.27;;;13.30;1.00;;;;;;5132206;27;20452;-57
2022/04/22 09:05:57;;;;;;;7.63;5.60;;;13.50;1.00;;;;;;5126985;27;20436;-56
2022/04/22 09:08:25;;;;;;;7.37;4.80;;;13.40;1.00;;;;;;5134870;27;20467;-57
2022/04/22 09:10:56;;;;;;;8.60;4.80;;;13.50;1.00;;;;;;5126488;27;20476;-56
2022/04/22 09:13:29;;;;;;;6.33;5.23;;;13.60;1.00;;;;;;5121877;27;20769;-58
2022/04/22 09:15:59;;;;;;;9.10;5.57;;;13.80;1.00;;;;;;5112918;27;20960;-56
2022/04/22 09:18:27;;;;;;;7.20;6.50;;;14.00;1.00;;;;;;5122504;27;20749;-57
2022/04/22 09:21:02;;;;;;;10.70;4.50;;;14.00;1.00;;;;;;5130106;27;20910;-57
2022/04/22 09:23:34;;;;;;;6.60;4.53;;;14.10;1.00;;;;;;5135156;27;20451;-58
2022/04/22 09:26:06;;;;;;;7.97;4.73;;;14.00;1.00;;;;;;5135155;27;20459;-53
2022/04/22 09:28:34;;;;;;;5.17;4.10;;;13.90;1.00;;;;;;5127308;27;20454;-58
2022/04/22 09:31:02;;;;;;;5.73;3.87;;;14.10;1.00;;;;;;5130343;27;20754;-55
2022/04/22 09:33:44;;;;;;;7.67;4.47;;;14.50;1.00;;;;;;5121768;27;20981;-50
2022/04/22 09:44:54;;;;;;;5.27;4.30;;;14.50;1.00;;;;;;5103235;27;20424;-54
2022/04/22 09:47:21;;;;;;;5.40;4.50;;;14.80;1.00;;;;;;5127204;27;21029;-50
2022/04/22 09:49:51;;;;;;;8.43;6.03;;;15.00;1.00;;;;;;5112275;28;20452;-54
2022/04/22 09:52:27;;;;;;;6.57;4.17;;;15.20;1.00;;;;;;5126099;27;21045;-53
2022/04/22 09:54:59;;;;;;;6.70;5.17;;;15.30;1.00;;;;;;5114396;27;20439;-54
2022/04/22 09:57:27;;;;;;;7.67;5.13;;;15.40;1.00;;;;;;5120705;27;21027;-53
2022/04/22 09:59:55;;;;;;;6.30;4.40;;;15.50;1.00;;;;;;5123583;27;20444;-52
2022/04/22 10:02:25;;;;;;;5.53;4.50;;;15.70;1.00;;;;;;5120014;27;20511;-51
2022/04/22 10:05:01;;;;;;;8.67;5.77;;;15.80;1.00;;;;;;5114755;27;20458;-49
2022/04/22 10:07:32;;;;;;;5.70;3.43;;;16.00;1.00;;;;;;5114711;27;20471;-54
2022/04/22 10:10:03;;;;;;;6.77;6.03;;;15.80;1.00;;;;;;5126433;27;20769;-53
2022/04/22 10:12:31;;;;;;;8.30;5.13;;;15.60;1.00;;;;;;5114604;27;20752;-52
2022/04/22 10:15:03;;;;;;;6.40;5.27;;;15.80;1.00;;;;;;5116878;27;20452;-54
2022/04/22 10:17:31;;;;;;;7.87;5.00;;;16.10;1.00;;;;;;5121578;27;20501;-53
2022/04/22 10:20:06;;;;;;;5.90;4.70;;;16.50;1.00;;;;;;5117835;27;20451;-52
2022/04/22 10:22:37;;;;;;;7.10;5.43;;;16.80;1.00;;;;;;5118001;27;20834;-54
2022/04/22 10:25:07;;;;;;;7.07;5.40;;;17.10;1.00;;;;;;5112545;27;20441;-52
2022/04/22 10:27:38;;;;;;;4.50;3.73;;;17.20;1.00;;;;;;5119680;27;20451;-53
2022/04/22 10:30:10;;;;;;;11.10;4.33;;;17.20;1.00;;;;;;5120420;27;20447;-50
2022/04/22 10:32:41;;;;;;;5.17;3.97;;;17.50;1.00;;;;;;5119884;27;20909;-54
2022/04/22 10:35:13;;;;;;;5.87;4.33;;;17.30;1.00;;;;;;5115012;27;20879;-54
2022/04/22 10:37:56;;;;;;;5.23;2.97;;;17.00;1.00;;;;;;5123444;27;20441;-51
2022/04/22 10:40:28;;;;;;;4.97;3.70;;;16.80;1.00;;;;;;5114410;27;20484;-56
2022/04/22 10:42:58;;;;;;;6.47;3.30;;;16.70;1.00;;;;;;5118650;27;20440;-57
2022/04/22 10:48:21;;;;;;;6.37;4.10;;;17.30;1.00;;;;;;5121919;27;20588;-56
2022/04/22 10:50:59;;;;;;;6.17;4.93;;;17.80;1.00;;;;;;5113198;27;20782;-58
2022/04/22 10:53:33;;;;;;;3.40;2.60;;;17.80;1.00;;;;;;5122080;27;20461;-59
2022/04/22 10:56:33;;;;;;;6.40;4.13;;;17.70;1.00;;;;;;5118144;27;20479;-57
2022/04/22 10:59:24;;;;;;;3.70;2.80;;;17.50;1.00;;;;;;5118540;27;20825;-57
2022/04/22 11:01:53;;;;;;;5.70;4.37;;;17.90;1.00;;;;;;5107332;27;20942;-57
2022/04/22 11:04:24;;;;;;;6.93;4.60;;;18.00;1.00;;;;;;5115373;27;20524;-57
2022/04/22 11:06:55;;;;;;;7.30;4.33;;;18.20;1.00;;;;;;5117392;27;20441;-57
2022/04/22 11:09:27;;;;;;;7.57;6.07;;;18.40;1.00;;;;;;5114388;27;20801;-52
2022/04/22 11:11:57;;;;;;;6.45;4.80;;;18.60;1.00;;;;;;5111647;28;20514;-57
2022/04/22 11:14:27;;;;;;;5.80;4.93;;;18.60;1.00;;;;;;5112258;27;20202;-57
2022/04/22 11:16:57;;;;;;;5.33;3.50;;;18.00;1.00;;;;;;5115727;27;20480;-54
2022/04/22 11:19:29;;;;;;;13.80;6.33;;;18.10;1.00;;;;;;5125369;27;20544;-55
2022/04/22 11:22:01;;;;;;;9.10;6.60;;;18.40;1.00;;;;;;5122239;28;20460;-55
2022/04/22 11:24:33;;;;;;;5.33;4.77;;;18.60;1.00;;;;;;5114914;28;20460;-55
2022/04/22 11:27:11;;;;;;;4.30;3.70;;;18.40;1.00;;;;;;5118472;28;20443;-56
2022/04/22 11:29:45;;;;;;;7.90;5.23;;;18.80;1.00;;;;;;5120822;28;20442;-55
2022/04/22 11:32:20;;;;;;;4.23;3.83;;;19.10;1.00;;;;;;5121328;28;20744;-54
2022/04/22 11:35:19;;;;;;;6.87;5.47;;;19.40;1.00;;;;;;5129326;28;20786;-54
2022/04/22 11:37:57;;;;;;;4.30;3.90;;;19.50;1.00;;;;;;5112146;28;20484;-55
2022/04/22 11:40:25;;;;;;;4.60;3.53;;;19.10;1.00;;;;;;5118342;28;20444;-56
2022/04/22 11:42:54;;;;;;;3.87;2.73;;;19.40;1.00;;;;;;5115000;28;20452;-55
2022/04/22 11:45:22;;;;;;;5.17;3.40;;;20.00;1.00;;;;;;5118108;28;20452;-56
2022/04/22 11:47:49;;;;;;;5.13;3.47;;;20.10;1.00;;;;;;5127004;28;20771;-56
2022/04/22 11:50:24;;;;;;;4.43;4.03;;;20.00;1.00;;;;;;5125467;27;20771;-56
2022/04/22 11:52:56;;;;;;;5.80;4.13;;;20.10;1.00;;;;;;5119602;27;20451;-54
2022/04/22 11:55:23;;;;;;;4.20;3.47;;;20.10;1.00;;;;;;5116201;28;20451;-56
2022/04/22 11:57:51;;;;;;;5.40;4.70;;;20.50;1.00;;;;;;5112030;27;20476;-56
2022/04/22 12:05:52;;;;;;;4.37;3.83;;;19.40;1.00;;;;;;5119699;27;20743;-57
2022/04/22 12:08:20;;;;;;;5.80;4.87;;;19.60;1.00;;;;;;5124225;27;20576;-55
2022/04/22 12:10:52;;;;;;;4.03;3.63;;;19.80;1.00;;;;;;5117634;27;20515;-56
2022/04/22 12:13:21;;;;;;;3.30;2.47;;;20.10;1.00;;;;;;5122398;27;20483;-59
2022/04/22 12:15:52;;;;;;;8.53;3.80;;;20.50;1.00;;;;;;5135484;27;21454;-57
2022/04/22 12:18:34;;;;;;;4.23;3.33;;;20.70;1.00;;;;;;5129925;27;20444;-59
2022/04/22 12:21:03;;;;;;;4.83;4.43;;;20.50;1.00;;;;;;5126507;27;20440;-57
2022/04/22 12:23:39;;;;;;;3.93;3.33;;;20.50;1.00;;;;;;5137032;27;20870;-59
2022/04/22 12:26:18;;;;;;;4.80;3.77;;;20.80;1.00;;;;;;5117427;27;20440;-60
2022/04/22 12:29:05;;;;;;;5.57;4.70;;;20.80;1.00;;;;;;5116878;28;20465;-60
2022/04/22 12:31:33;;;;;;;2.83;2.53;;;20.50;1.00;;;;;;5117382;28;20725;-60
2022/04/22 12:34:02;;;;;;;5.70;3.40;;;20.50;1.00;;;;;;5115567;28;20448;-60
2022/04/22 12:36:32;;;;;;;3.80;3.00;;;20.70;1.00;;;;;;5116468;27;20484;-60
2022/04/22 12:39:05;;;;;;;3.30;2.77;;;21.00;1.00;;;;;;5125750;27;20457;-60
2022/04/22 12:41:43;;;;;;;5.20;3.53;;;20.80;1.00;;;;;;5122410;27;20792;-60
2022/04/22 12:44:13;;;;;;;4.80;4.33;;;20.60;1.00;;;;;;5131089;27;20435;-60
2022/04/22 12:52:21;;;;;;;21.10;18.60;;;20.90;1.00;;;;;;5131465;27;20454;-59
2022/04/22 12:54:50;;;;;;;3.90;3.13;;;20.80;1.00;;;;;;5137106;27;21041;-60
2022/04/22 12:57:23;;;;;;;3.23;2.30;;;20.70;1.00;;;;;;5136687;27;20480;-58
2022/04/22 12:59:52;;;;;;;4.47;3.70;;;20.80;1.00;;;;;;5136402;27;20440;-58
2022/04/22 13:02:28;;;;;;;3.63;3.33;;;21.20;1.00;;;;;;5133125;27;20542;-59
2022/04/22 13:05:00;;;;;;;3.40;3.03;;;21.70;1.00;;;;;;5137697;27;20439;-59
2022/04/22 13:07:40;;;;;;;2.90;2.47;;;21.90;1.00;;;;;;5115385;27;20492;-60
2022/04/22 13:10:10;;;;;;;3.30;2.43;;;21.80;1.00;;;;;;5113381;27;20463;-58
2022/04/22 13:12:39;;;;;;;3.83;3.20;;;21.90;1.00;;;;;;5129511;27;20482;-59
2022/04/22 13:15:12;;;;;;;3.00;2.77;;;22.10;1.00;;;;;;5135530;27;20552;-59
2022/04/22 13:17:41;;;;;;;2.70;2.50;;;22.20;1.00;;;;;;5135015;27;20475;-59
2022/04/22 13:20:10;;;;;;;2.93;2.30;;;22.20;1.00;;;;;;5133922;27;20444;-60
2022/04/22 13:22:38;;;;;;;3.60;2.10;;;22.10;1.00;;;;;;5134986;27;20500;-59
2022/04/22 13:25:06;;;;;;;12.67;10.03;;;22.10;1.00;;;;;;5130401;27;20439;-59
2022/04/22 13:27:35;;;;;;;3.27;2.97;;;22.20;1.00;;;;;;5134655;27;20828;-59
2022/04/22 13:30:03;;;;;;;2.70;2.50;;;22.40;1.00;;;;;;5128780;27;20739;-58
2022/04/22 13:32:31;;;;;;;3.60;2.30;;;22.40;1.00;;;;;;5126638;27;20900;-59
2022/04/22 13:34:58;;;;;;;4.50;4.13;;;22.40;1.00;;;;;;5133981;27;20447;-59
2022/04/22 13:37:26;;;;;;;4.23;3.70;;;22.10;1.00;;;;;;5133809;27;20479;-60
2022/04/22 13:39:55;;;;;;;3.20;2.90;;;21.80;1.00;;;;;;5134306;27;20436;-60
2022/04/22 13:42:24;;;;;;;3.30;2.40;;;21.50;1.00;;;;;;5133842;27;20468;-59
2022/04/22 13:53:07;;;;;;;4.03;2.67;;;21.90;1.00;;;;;;5128495;27;20439;-58
2022/04/22 13:55:38;;;;;;;2.60;2.40;;;21.40;1.00;;;;;;5135958;27;20495;-59
2022/04/22 13:58:05;;;;;;;4.60;3.60;;;21.10;1.00;;;;;;5133953;27;20944;-57
2022/04/22 14:00:34;;;;;;;3.90;2.17;;;20.90;1.00;;;;;;5133794;27;20521;-58
2022/04/22 14:03:02;;;;;;;3.40;3.07;;;20.80;1.00;;;;;;5125039;27;20550;-57
2022/04/22 14:05:29;;;;;;;2.60;2.40;;;20.90;1.00;;;;;;5123221;27;20759;-57
2022/04/22 14:07:56;;;;;;;2.53;2.33;;;20.60;1.00;;;;;;5117069;27;20428;-57
2022/04/22 14:10:23;;;;;;;2.47;2.27;;;20.40;1.00;;;;;;5119273;27;21014;-58
2022/04/22 14:12:51;;;;;;;2.20;1.77;;;20.60;1.00;;;;;;5120009;27;20774;-57
2022/04/22 14:15:19;;;;;;;2.47;2.13;;;21.00;1.00;;;;;;5123220;27;20736;-57
2022/04/22 14:17:47;;;;;;;2.43;2.23;;;21.30;1.00;;;;;;5119236;27;20475;-58
2022/04/22 14:20:14;;;;;;;7.37;5.60;;;21.40;1.00;;;;;;5118548;27;21055;-57
2022/04/22 14:22:43;;;;;;;4.97;2.90;;;21.40;1.00;;;;;;5115500;27;20452;-57
2022/04/22 14:25:10;;;;;;;4.23;2.73;;;21.40;1.00;;;;;;5118981;27;20908;-59
2022/04/22 14:27:37;;;;;;;3.13;2.43;;;21.30;1.00;;;;;;5121619;27;20445;-56